createdAt,value
2022-10-26T00:01:57.869Z,1.60
2022-10-26T00:06:59.404Z,1.92
2022-10-26T00:12:00.892Z,1.58
2022-10-26T00:17:02.310Z,1.35
2022-10-26T00:22:03.901Z,1.40
2022-10-26T00:27:05.645Z,1.55
2022-10-26T00:32:07.159Z,1.67
2022-10-26T00:37:09.653Z,1.35
2022-10-26T00:42:22.504Z,2.17
2022-10-26T00:47:41.916Z,1.73
2022-10-26T00:52:43.604Z,1.60
2022-10-26T00:57:45.066Z,1.65
2022-10-26T01:02:49.338Z,1.35
2022-10-26T01:07:52.110Z,1.40
2022-10-26T01:12:56.050Z,0.90
2022-10-26T01:18:15.940Z,1.30
2022-10-26T01:23:34.133Z,1.43
2022-10-26T01:29:02.127Z,1.60
2022-10-26T01:34:14.189Z,1.30
2022-10-26T01:39:28.125Z,1.38
2022-10-26T01:44:39.569Z,1.30
2022-10-26T01:49:50.334Z,1.60
2022-10-26T01:54:51.905Z,1.35
2022-10-26T02:00:12.208Z,1.20
2022-10-26T02:05:25.374Z,1.20
2022-10-26T02:10:47.920Z,1.50
2022-10-26T02:16:17.364Z,1.85
2022-10-26T02:21:25.794Z,1.80
2022-10-26T02:26:30.667Z,1.00
2022-10-26T02:31:33.935Z,1.92
2022-10-26T02:36:39.188Z,1.70
2022-10-26T02:41:43.830Z,1.75
2022-10-26T02:46:45.716Z,1.38
2022-10-26T02:51:56.264Z,1.70
2022-10-26T02:57:07.673Z,1.85
2022-10-26T03:02:09.470Z,2.20
2022-10-26T03:07:10.987Z,1.52
2022-10-26T03:12:12.408Z,2.50
2022-10-26T03:17:13.839Z,1.83
2022-10-26T03:22:15.448Z,2.22
2022-10-26T03:27:16.977Z,1.63
2022-10-26T03:32:18.789Z,2.70
2022-10-26T03:37:20.201Z,2.78
2022-10-26T03:42:21.651Z,2.83
2022-10-26T03:47:23.136Z,2.28
2022-10-26T03:52:24.780Z,2.65
2022-10-26T03:57:26.309Z,2.40
2022-10-26T04:02:27.731Z,2.92
2022-10-26T04:07:29.223Z,2.85
2022-10-26T04:12:30.629Z,2.17
2022-10-26T04:17:32.303Z,3.03
2022-10-26T04:22:33.727Z,2.40
2022-10-26T04:27:35.543Z,2.28
2022-10-26T04:32:37.083Z,2.55
2022-10-26T04:37:38.511Z,2.35
2022-10-26T04:42:44.235Z,2.05
2022-10-26T04:47:45.705Z,2.25
2022-10-26T04:52:51.532Z,3.47
2022-10-26T04:57:55.943Z,2.00
2022-10-26T05:03:05.176Z,2.50
2022-10-26T05:08:06.882Z,2.47
2022-10-26T05:13:09.438Z,2.40
2022-10-26T05:18:10.940Z,2.15
2022-10-26T05:23:12.464Z,2.78
2022-10-26T05:28:15.302Z,2.33
2022-10-26T05:33:16.799Z,2.05
2022-10-26T05:38:18.329Z,1.88
2022-10-26T05:43:21.874Z,2.30
2022-10-26T05:48:23.516Z,2.30
2022-10-26T05:53:24.906Z,2.13
2022-10-26T05:58:26.820Z,2.53
2022-10-26T06:04:03.275Z,2.95
2022-10-26T06:09:04.927Z,3.25
2022-10-26T06:14:07.284Z,3.47
2022-10-26T06:19:22.803Z,3.35
2022-10-26T06:24:39.848Z,3.28
2022-10-26T06:29:54.656Z,2.58
2022-10-26T06:35:25.449Z,3.50
2022-10-26T06:40:27.271Z,3.53
2022-10-26T06:45:29.121Z,3.45
2022-10-26T06:50:44.401Z,3.45
2022-10-26T06:55:49.731Z,3.50
2022-10-26T07:00:54.051Z,3.30
2022-10-26T07:05:55.612Z,2.90
2022-10-26T07:10:57.127Z,2.70
2022-10-26T07:15:59.275Z,3.05
2022-10-26T07:21:00.762Z,3.42
2022-10-26T07:26:02.227Z,3.40
2022-10-26T07:31:05.594Z,3.40
2022-10-26T07:36:08.640Z,2.35
2022-10-26T07:41:10.131Z,2.95
2022-10-26T07:46:12.753Z,2.42
2022-10-26T07:51:14.962Z,2.63
2022-10-26T07:56:16.446Z,2.88
2022-10-26T08:01:17.943Z,3.38
2022-10-26T08:06:20.158Z,2.90
2022-10-26T08:11:21.976Z,1.85
2022-10-26T08:16:23.780Z,3.38
2022-10-26T08:21:36.159Z,2.45
2022-10-26T08:26:41.840Z,2.72
2022-10-26T08:31:43.323Z,2.47
2022-10-26T08:36:46.921Z,2.42
2022-10-26T08:41:53.465Z,4.40
2022-10-26T08:47:00.756Z,2.92
2022-10-26T08:52:03.334Z,2.50
2022-10-26T08:57:16.189Z,2.28
2022-10-26T09:02:18.053Z,2.17
2022-10-26T09:07:40.457Z,2.50
2022-10-26T09:13:28.369Z,2.30
2022-10-26T09:18:57.802Z,2.00
2022-10-26T09:24:08.495Z,2.20
2022-10-26T09:29:13.560Z,1.95
2022-10-26T09:34:31.471Z,1.85
2022-10-26T09:39:42.337Z,2.03
2022-10-26T09:44:52.433Z,1.83
2022-10-26T09:49:58.404Z,2.28
2022-10-26T09:54:59.886Z,2.28
2022-10-26T10:00:01.335Z,2.00
2022-10-26T10:05:32.891Z,1.67
2022-10-26T10:11:07.529Z,1.70
2022-10-26T10:16:20.293Z,2.15
2022-10-26T10:21:22.225Z,2.08
2022-10-26T10:26:25.039Z,2.50
2022-10-26T10:31:30.016Z,1.73
2022-10-26T10:36:32.312Z,2.50
2022-10-26T10:41:36.646Z,1.85
2022-10-26T10:46:41.009Z,2.15
2022-10-26T10:51:44.131Z,1.67
2022-10-26T10:56:54.905Z,2.70
2022-10-26T11:02:23.371Z,2.00
2022-10-26T11:07:27.972Z,2.33
2022-10-26T11:12:38.909Z,2.28
2022-10-26T11:18:08.141Z,2.33
2022-10-26T11:23:20.869Z,2.22
2022-10-26T11:28:33.982Z,1.98
2022-10-26T11:33:47.376Z,1.95
2022-10-26T11:39:06.757Z,2.20
2022-10-26T11:44:34.505Z,1.50
2022-10-26T11:49:57.733Z,1.67
2022-10-26T11:55:04.708Z,1.35
2022-10-26T12:00:25.222Z,1.77
2022-10-26T12:05:50.238Z,1.67
2022-10-26T12:11:04.973Z,1.92
2022-10-26T12:16:32.860Z,1.42
2022-10-26T12:21:36.614Z,1.48
2022-10-26T12:26:41.906Z,2.10
2022-10-26T12:31:44.167Z,1.63
2022-10-26T12:36:57.670Z,1.98
2022-10-26T12:42:05.336Z,2.03
2022-10-26T12:47:08.757Z,2.00
2022-10-26T12:52:28.509Z,1.98
2022-10-26T12:57:50.009Z,1.55
2022-10-26T13:03:13.291Z,1.52
2022-10-26T13:08:15.694Z,1.70
2022-10-26T13:13:24.147Z,1.40
2022-10-26T13:18:27.249Z,1.57
2022-10-26T13:23:35.954Z,1.55
2022-10-26T13:28:37.332Z,1.58
2022-10-26T13:33:43.881Z,1.25
2022-10-26T13:38:47.254Z,1.63
2022-10-26T13:43:50.076Z,1.63
2022-10-26T13:48:53.064Z,1.70
2022-10-26T13:54:16.797Z,1.75
2022-10-26T14:04:29.006Z,1.65
2022-10-26T14:09:31.066Z,1.25
2022-10-26T14:14:36.364Z,1.95
2022-10-26T14:19:41.658Z,2.17
2022-10-26T14:30:21.111Z,1.92
2022-10-26T14:35:24.652Z,1.73
2022-10-26T14:40:34.055Z,2.08
2022-10-26T14:45:53.826Z,2.13
2022-10-26T14:51:21.201Z,2.05
2022-10-26T14:56:30.954Z,1.90
2022-10-26T15:01:36.210Z,1.67
2022-10-26T15:06:43.750Z,2.53
2022-10-26T15:11:48.274Z,2.10
2022-10-26T15:16:59.310Z,1.48
2022-10-26T15:22:00.842Z,1.58
2022-10-26T15:27:03.636Z,1.45
2022-10-26T15:32:18.384Z,1.42
2022-10-26T15:37:20.167Z,1.60
2022-10-26T15:42:21.846Z,1.65
2022-10-26T15:47:30.488Z,1.40
2022-10-26T15:52:32.371Z,1.85
2022-10-26T15:57:33.955Z,1.98
2022-10-26T16:02:37.870Z,1.77
2022-10-26T16:07:43.072Z,1.60
2022-10-26T16:12:44.541Z,3.40
2022-10-26T16:17:46.672Z,2.15
2022-10-26T16:22:49.280Z,2.50
2022-10-26T16:27:53.600Z,2.30
2022-10-26T16:32:55.041Z,2.47
2022-10-26T16:37:56.532Z,1.90
2022-10-26T16:42:58.009Z,2.22
2022-10-26T16:47:59.563Z,3.05
2022-10-26T16:53:00.983Z,4.20
2022-10-26T16:58:02.446Z,3.42
2022-10-26T17:03:04.467Z,3.17
2022-10-26T17:08:07.206Z,2.90
2022-10-26T17:13:08.615Z,2.97
2022-10-26T17:18:10.845Z,3.15
2022-10-26T17:23:12.267Z,2.80
2022-10-26T17:28:13.876Z,3.20
2022-10-26T17:33:15.317Z,3.10
2022-10-26T17:38:16.791Z,3.30
2022-10-26T17:43:18.402Z,2.92
2022-10-26T17:48:19.875Z,4.32
2022-10-26T17:53:21.430Z,4.13
2022-10-26T17:58:22.902Z,5.80
2022-10-26T18:03:24.359Z,4.13
2022-10-26T18:08:26.311Z,4.15
2022-10-26T18:13:33.846Z,3.40
2022-10-26T18:18:35.421Z,3.03
2022-10-26T18:23:38.165Z,5.45
2022-10-26T18:28:39.931Z,5.13
2022-10-26T18:33:41.636Z,5.65
2022-10-26T18:38:44.153Z,4.28
2022-10-26T18:43:51.033Z,5.05
2022-10-26T18:48:53.518Z,4.82
2022-10-26T18:53:56.761Z,5.00
2022-10-26T18:58:59.899Z,5.22
2022-10-26T19:04:07.024Z,4.50
2022-10-26T19:09:10.185Z,6.95
2022-10-26T19:14:13.060Z,8.13
2022-10-26T19:19:16.471Z,7.95
2022-10-26T19:24:22.937Z,7.13
2022-10-26T19:29:24.387Z,6.45
2022-10-26T19:34:26.144Z,5.45
2022-10-26T19:39:27.819Z,4.85
2022-10-26T19:44:29.259Z,6.80
2022-10-26T19:49:30.832Z,7.55
2022-10-26T19:54:32.386Z,5.32
2022-10-26T19:59:33.828Z,6.40
2022-10-26T20:04:35.283Z,5.60
2022-10-26T20:09:36.736Z,6.78
2022-10-26T20:14:39.481Z,4.55
2022-10-26T20:19:40.885Z,5.30
2022-10-26T20:24:43.341Z,5.03
2022-10-26T20:29:44.985Z,5.53
2022-10-26T20:34:46.604Z,4.93
2022-10-26T20:39:48.311Z,4.55
2022-10-26T20:44:57.635Z,5.65
2022-10-26T20:49:59.382Z,5.00
2022-10-26T20:55:15.412Z,3.42
2022-10-26T21:00:17.245Z,3.15
2022-10-26T21:05:21.270Z,3.80
2022-10-26T21:10:22.725Z,4.30
2022-10-26T21:15:24.257Z,3.60
2022-10-26T21:20:25.731Z,4.47
2022-10-26T21:25:27.214Z,3.28
2022-10-26T21:30:28.940Z,4.13
2022-10-26T21:35:30.484Z,3.20
2022-10-26T21:40:31.992Z,3.58
2022-10-26T21:45:33.462Z,2.85
2022-10-26T21:50:34.907Z,2.65
2022-10-26T21:55:36.334Z,2.38
2022-10-26T22:00:37.835Z,3.13
2022-10-26T22:05:43.580Z,2.90
2022-10-26T22:10:47.874Z,2.78
2022-10-26T22:15:49.602Z,6.95
2022-10-26T22:21:00.001Z,4.13
2022-10-26T22:26:12.572Z,2.90
2022-10-26T22:31:16.955Z,3.03
2022-10-26T22:36:18.821Z,3.35
2022-10-26T22:41:21.837Z,3.30
2022-10-26T22:46:26.713Z,2.20
2022-10-26T22:51:33.215Z,3.00
2022-10-26T22:56:35.821Z,2.42
2022-10-26T23:01:39.357Z,2.00
2022-10-26T23:06:41.550Z,2.03
2022-10-26T23:11:42.956Z,2.20
2022-10-26T23:16:44.392Z,2.13
2022-10-26T23:21:45.841Z,1.95
2022-10-26T23:26:47.290Z,3.70
2022-10-26T23:31:48.724Z,1.70
2022-10-26T23:36:52.020Z,2.33
2022-10-26T23:41:53.438Z,3.15
2022-10-26T23:46:54.884Z,2.30
2022-10-26T23:51:56.341Z,2.85
2022-10-26T23:56:57.869Z,2.58
